Riverside, CA (92506)

11:17 AM PDT on August 30, 2015 (GMT -0700)
Canyon Crest S | | Change Station
CLOSE
Current Station
Personal Weather Station
Location: Riverside, CA
Elevation: 1355 ft
Nearby Weather Stations

Elev 1355 ft 33.94 °N, 117.34 °W | Updated 6 minutes ago

Clear
Clear
87.4 °F
Feels Like 88 °F
N
1.0
Wind Variable Wind from NNW
Gusts 5.0 mph

Today
High -- | Low -- °F
--% Chance of Precip.
Yesterday
High -- | Low -- °F
Precip. -- in
6:21 AM 7:17 PM
Full, 99% visible
Pressure 29.87 in
Visibility 10.0 miles
Clouds Clear
Heat Index 88 °F
Dew Point 63 °F
Humidity 44%
Rainfall 0.00 in
Snow Depth Not available.
UV 8 out of 12
Pollen 6.00 out of 12
Air Quality Not available.
Flu Activity Not available.
METAR KRAL 301753Z 27006KT 10SM CLR 30/16 A2992 RMK AO2 SLP115 T03000156 10300 20217 55000
Pressure 29.87 in
Visibility 10.0 miles
Clouds Clear
Heat Index 88 °F
Dew Point 63 °F
Humidity 44%
Rainfall 0.00 in
Snow Depth Not available.
UV 8 out of 12
Pollen 6.00 out of 12
Air Quality Not available.
Flu Activity Not available.
METAR KRAL 301753Z 27006KT 10SM CLR 30/16 A2992 RMK AO2 SLP115 T03000156 10300 20217 55000

10-Day Weather Forecast

×

Almanac

Astronomy

Aug. 30, 2015 Rise Set
Actual Time
Civil Twilight
Nautical Twilight
Astronomical Twilight
Moon
Length of Visible Light
Length of Day
Tomorrow will be .
, % of the Moon is Illuminated

Today's Extremes

State Highs State Lows

Community

WunderPhotos

Upload Photos

1,851,027 photos uploaded!

WunderBlogs® & News

Nearby

Air Quality

  Air Quality AQ Index Pollutant
Not available.

Snow Depth

Station Depth Elevation

Earthquake Activity

City Distance Mag. Time & Date
Minimum magnitude displayed is 2.5.

Coastal Water Temperatures

Place Temperature

Stations

Nearby Weather Stations

Station Location Temp. Windchill Dew Point Humidity Wind Precip. Elev Updated Type